Team logos
Guidelines for entries Team Leaderboard Add or Update a Person FAQ
Jun 2021 - The GA Summer 6-Miler
This challenge was chosen by GarageAthlete


Row six miles as
3 miles (4827m)
3 mins rest
2 miles (3218m)
2 mins rest
and a mile (1609m) to finish
There are no stroke rate restrictions.
1st rep from a standing start.


Record your time for 9654 metres


The July challenge will be chosen by Sub7.
See C2 forum thread for details.

Most Recent EntriesAdd/Update an Entry
DateNameCatTeamResult
2021-06-14Nick RockliffMHWTTeam Oarsome 35:45.9
2021-06-14Richard SAMHWTThe Delivery Room 35:38.4
2021-06-14Benita ClausenFHWTSub 7 38:57.6
2021-06-14sjoerd plagmeijerMHWTFree Spirits 35:09.3
2021-06-14..IDR TDWMHWTThe Delivery Room 35:34.5
Bold = new time; italic = updated time
Name:
Password:
Entry: hours min sec
 
Current Leaderboard
Names in blue italics have added or updated their times within the past 24 hours.
#NameCatTeamResultPacePower
1Tobias StöhrMGermania I 32:34.1   1:41.2  337.6 
2NZ - Andy TomlinsonMTe Waka Aotearoa I 32:46.5   1:41.8  331.3 
3Tim Perkins FMMFitness Matters I 32:50.4   1:42.1  329.3 
4Keith DarbymRed Line Rowers I 32:58.4   1:42.5  325.3 
5Justin FarinaMGARAGEATHLETE I 33:05.8   1:42.8  321.7 
6Craig HodgesMGARAGEATHLETE I 33:27.4   1:44.0  311.4 
7Ian Gallagher TDRMThe Delivery Room I 33:34.1   1:44.3  308.3 
8Nathaniel Wright TDRMThe Delivery Room I 33:49.5   1:45.1  301.4 
9j.dMMAD I 33:51.2   1:45.2  300.6 
10Ben JagoMSub 7 I 33:53.6   1:45.3  299.6 
11Warren MatthewsMSub 7 I 33:53.7   1:45.3  299.5 
12Casey ClarkeMSub 7 I 34:07.3   1:46.0  293.6 
13Kevin CarterMSub 7 II 34:27.0   1:47.1  285.3 
14VgueretMFIRT I 34:27.7   1:47.1  285.0 
15Alan DenbyMSub 7 II 34:34.2   1:47.4  282.3 
16Mark Roberts TDRMThe Delivery Room I 34:37.2   1:47.6  281.1 
17Rich DixonMSub 7 II 34:40.9   1:47.8  279.6 
18Martin Mario JelaniMFitness Matters I 34:46.6   1:48.1  277.3 
19Ian WildeMSub 7 III 34:56.5   1:48.6  273.4 
20Russell CarterMMAD I 34:59.7   1:48.7  272.1 
21BlanksbyFMMFitness Matters I 35:05.4   1:49.0  269.9 
22Pete MarstonMMAD I 35:06.1   1:49.1  269.7 
23sjoerd plagmeijerMFree Spirits I 35:09.3   1:49.2  268.5 
24Ade Peel TO x1MTeam Oarsome I 35:15.0   1:49.5  266.3 
25Matt EadesMSub 7 III 35:29.9   1:50.3  260.7 
26..IDR TDWMThe Delivery Room II 35:34.5   1:50.6  259.1 
27Alastair Peake FMmFitness Matters I 35:36.7   1:50.7  258.3 
28Mark TremblayMThe Delivery Room II 35:37.6   1:50.7  257.9 
29Richard SAMThe Delivery Room II 35:38.4   1:50.8  257.6 
30Mark Smith Sub7MSub 7 III 35:43.7   1:51.0  255.7 
31Nick RockliffMTeam Oarsome I 35:45.9   1:51.1  254.9 
32Kay BieriMC2TweetCrew I 35:46.0   1:51.1  254.9 
33Jonty EyresMIsenhurst Rowers I 35:46.7   1:51.2  254.7 
34MerciermFIRT I 35:48.9   1:51.3  253.9 
35Rob PhillipsMSub 7 IV 35:49.8   1:51.3  253.6 
36Nigel FarmerMForum Flyers I 35:51.2   1:51.4  253.1 
37Matthew LeonardMFree Spirits I 35:52.6   1:51.5  252.6 
38meurice robinson RLRmRed Line Rowers I 35:52.9   1:51.5  252.5 
39Jeroen PasmanMSub 7 IV 35:56.9   1:51.7  251.1 
40Andy ParkesMGee Crew I 35:57.9   1:51.8  250.7 
41Craig MumbymTeam Oarsome I 35:58.1   1:51.8  250.6 
42Josh Skversky FMMFitness Matters II 35:58.9   1:51.8  250.4 
43Tony MaddocksMThe Delivery Room III 36:02.4   1:52.0  249.2 
44John WalshMSub 7 IV 36:06.5   1:52.2  247.7 
45Paul NuttallMFitness Matters II 36:06.6   1:52.2  247.7 
46Peter ClowesMTeam Oarsome I 36:08.4   1:52.3  247.1 
47Justin Nickel FMmFitness Matters II 36:10.3   1:52.4  246.4 
48tony walpoleMFitness Matters II 36:12.6   1:52.5  245.7 
49Matthew James FullerMThe Delivery Room III 36:15.1   1:52.7  244.8 
50Gregory CookmTeam Oarsome II 36:19.8   1:52.9  243.2 
51Patrik GustafssonMFitness Matters III 36:21.3   1:53.0  242.7 
52Allan HallbergMForum Flyers I 36:28.2   1:53.3  240.4 
53Paul SandsMRed Line Rowers I 36:28.3   1:53.3  240.4 
54Rowland Hills (RLR)MRed Line Rowers I 36:28.4   1:53.3  240.4 
55Paul Lloyd FMMFitness Matters III 36:28.7   1:53.4  240.3 
56RougeMGee Crew I 36:30.7   1:53.5  239.6 
57Mark HudsonMGARAGEATHLETE I 36:33.6   1:53.6  238.7 
58Dave ChmilowskyjMTeam Oarsome II 36:36.3   1:53.8  237.8 
59Eric AugustMSub 7 V 36:36.4   1:53.8  237.8 
60B McAuleymFitness Matters III 36:41.8   1:54.0  236.0 
61Jake LuceMSub 7 V 36:48.5   1:54.4  233.9 
62Gerry ArmstrongMTeam Oarsome II 36:49.9   1:54.5  233.4 
63Rob Palk Sub 7MSub 7 V 36:57.2   1:54.8  231.1 
64Laura TinglefFitness Matters I 36:57.8   1:54.9  230.9 
65Andy ColeMGee Crew I 37:09.1   1:55.4  227.5 
66James HowardmSub 7 I 37:11.8   1:55.6  226.6 
67James ClarkeMFitness Matters III 37:16.0   1:55.8  225.4 
68Mike Pearce (MPx)MSub 7 VI 37:16.4   1:55.8  225.2 
69harrythehamsterMForum Flyers I 37:17.1   1:55.9  225.0 
70BertrandmFIRT I 37:21.1   1:56.1  223.8 
71Russell JonesMRed Line Rowers II 37:27.0   1:56.4  222.1 
72Jan BorkensteinMFree Spirits I 37:35.0   1:56.8  219.7 
73Glyn LloydmSub 7 II 37:36.9   1:56.9  219.2 
74Phil RaynerMIsenhurst Rowers I 37:38.9   1:57.0  218.6 
75Adam YalowichmFitness Matters IV 37:41.5   1:57.1  217.8 
76Guillaume DauphinMPaddy Power I 37:44.8   1:57.3  216.9 
77Kevin HillmanMEmpty the Tanks I 37:45.5   1:57.3  216.7 
78Richard SteventonMSub 7 VI 37:56.5   1:57.9  213.5 
79Rich EnnersMDiamonds I 37:58.2   1:58.0  213.1 
80Andy BurrowsMTeam Oarsome II 38:00.1   1:58.1  212.5 
81Hal Appleyard01MSub 7 VI 38:00.5   1:58.1  212.4 
82Tako LootsmaMFitness Matters IV 38:04.1   1:58.3  211.4 
83Scott RoyalMFirm Fitness I 38:08.4   1:58.5  210.2 
84Mike DohertyMIsenhurst Rowers I 38:09.1   1:58.6  210.0 
85Paul GouldMFree Spirits II 38:12.5   1:58.7  209.1 
86Glynn PowellMSub 7 VII 38:19.0   1:59.1  207.3 
87Paul MortonmSub 7 III 38:19.8   1:59.1  207.1 
88John.StinermDiamonds I 38:19.9   1:59.1  207.1 
89Richard WolfMForum Flyers II 38:26.2   1:59.4  205.4 
90Robert JonesMSub 7 VII 38:30.6   1:59.7  204.2 
91Karl Hoods TDRmThe Delivery Room I 38:32.5   1:59.8  203.7 
92Robert HenmanMDiamonds I 38:35.8   1:59.9  202.9 
93GafferMAge Without Limits I 38:36.0   2:00.0  202.8 
94Chris NewberrymFree Spirits I 38:45.4   2:00.4  200.3 
95Jon P TaylormFree Spirits II 38:47.3   2:00.5  199.9 
96Steve OckerbyMForum Flyers II 38:52.1   2:00.8  198.6 
97Matt NewmanmTeam Oarsome III 38:55.2   2:00.9  197.8 
98Benita ClausenFSub 7 I 38:57.6   2:01.1  197.2 
99Jon GoodallMMAD II 39:04.3   2:01.4  195.5 
100Luther JonesMDiamonds I 39:12.4   2:01.8  193.5 
101LindsayhMForum Flyers II 39:12.7   2:01.9  193.5 
102Jim McCarthyMDiamonds II 39:15.6   2:02.0  192.7 
103Eddie McSharryMSub 7 VII 39:23.3   2:02.4  190.9 
104Will HaskellmForum Flyers I 39:25.8   2:02.5  190.3 
105Terry FFmForum Flyers II 39:37.5   2:03.1  187.5 
106Neil LittlemDiamonds II 39:37.8   2:03.2  187.4 
107George Bingham (RLR LWT)mRed Line Rowers II 39:47.4   2:03.6  185.1 
108Jackie HamerFSub 7 II 39:51.6   2:03.9  184.2 
109Chris WhaleMForum Flyers III 39:55.6   2:04.1  183.2 
110Wayne E. CalvertMDiamonds II 40:01.3   2:04.4  181.9 
111AMNW Ian NorthcottMMercian Nordic Walking I 40:02.6   2:04.4  181.7 
112Tony LorrimermGee Crew I 40:06.5   2:04.6  180.8 
113Steve MotznyMAge Without Limits I 40:07.5   2:04.7  180.5 
114Rich InsleymThe Chain Pullers I 40:11.4   2:04.9  179.7 
115David R. HerzMAge Without Limits I 40:11.6   2:04.9  179.6 
116Hanna NeugebauerFFitness Matters II 40:23.9   2:05.5  176.9 
117David PlumbmFree Spirits II 40:34.5   2:06.1  174.6 
118Louise Barber1409fFitness Matters III 40:52.4   2:07.0  170.8 
119Allen HmFree Spirits II 41:13.0   2:08.1  166.6 
120Sue ElleryFIsenhurst Rowers I 41:15.3   2:08.2  166.1 
121Tracy Watkins RLRFRed Line Rowers I 41:20.7   2:08.5  165.0 
122Nick CarapietmIsenhurst Rowers I 41:20.9   2:08.5  165.0 
123M D MItchellMErg365 I 41:22.6   2:08.6  164.6 
124Sabine PatissierFFIRT I 41:23.4   2:08.6  164.5 
125Arlene Wade (TO)fTeam Oarsome I 41:43.8   2:09.7  160.5 
126AMNW DaveWmMercian Nordic Walking I 41:48.2   2:09.9  159.7 
127Julie DrakeFSub 7 III 41:57.6   2:10.4  157.9 
128..SkiScoresMattermSki Erg I 41:59.5   2:10.5  157.5 
129Rick BaykomForum Flyers III 42:02.2   2:10.6  157.0 
130Giles StewartmDiamonds II 42:11.5   2:11.1  155.3 
131FunkyrowerMGee Crew II 42:12.6   2:11.2  155.1 
132MBrownjohnmDiamonds III 42:27.8   2:12.0  152.3 
133Jill Hugessen.fDiamonds I 42:44.8   2:12.8  149.3 
134Mark WilliamsMFirm Fitness I 42:46.6   2:12.9  149.0 
135Peta RobinsonFDiamonds II 42:53.7   2:13.3  147.8 
136Glenn HortonMDiamonds III 43:01.9   2:13.7  146.4 
137Eve EvisonFGee Crew I 43:33.3   2:15.3  141.2 
138AMNW Pauline DemelFMercian Nordic Walking I 43:37.9   2:15.6  140.4 
139Kevin LivesleyMThe Chain Pullers I 44:11.0   2:17.3  135.2 
140YorkieMESPRIT I 44:20.9   2:17.8  133.7 
141Bill PalmerMForum Flyers III 44:39.7   2:18.8  130.9 
142Richard WebstermDiamonds III 44:44.5   2:19.0  130.2 
143Susan YoungFSub 7 IV 44:48.5   2:19.2  129.6 
144Zoe OsborneFIsenhurst Rowers II 44:55.2   2:19.6  128.7 
145Philip PricemFree Spirits III 44:59.5   2:19.8  128.1 
146clareburrellfFree Spirits I 45:24.5   2:21.1  124.6 
147MuckolFDiamonds III 45:50.8   2:22.5  121.0 
148Bluebell31FSub 7 V 46:36.3   2:24.8  115.2 
149Ruud JackelMRowPro Rowers I 46:47.0   2:25.4  113.9 
150Annette EdwardsFTeam Oarsome II 47:27.5   2:27.5  109.1 
151AMNWEsmeBfMercian Nordic Walking I 47:46.9   2:28.5  106.9 
152BurmanatorfThe Delivery Room I 47:57.7   2:29.0  105.7 
153Rachel RileyFIsenhurst Rowers II 47:58.4   2:29.1  105.6 
154Susan D FFCFFirm Fitness I 48:11.8   2:29.8  104.2 
155Nigel SalsburymDiamonds III 48:24.2   2:30.4  102.8 
156Barnsley BobMDiamonds IV 48:51.3   2:31.8  100.0 
157AMNWPatTFMercian Nordic Walking I 49:05.9   2:32.6  98.5 
158Stefan LedinmDiamonds IV 49:21.8   2:33.4  97.0 
159Dan LynchMSub 7 VIII 49:33.9   2:34.0  95.8 
160Alex McGeefFirm Fitness I 49:58.0   2:35.3  93.5 
161AMNWSusanRichardsFMercian Nordic Walking II 51:26.2   2:39.8  85.7 
162Anna Rae GreenFForum Flyers I 51:43.0   2:40.7  84.3 
163Roger BurrellmFree Spirits III 52:00.3   2:41.6  82.9 
164Heather SaundersfDiamonds IV 54:13.8   2:48.5  73.1 
165AMNWAnnMasonfMercian Nordic Walking II 58:21.9   3:01.4  58.7 
1
18 pts
Fitness Matters I 35:03.3
Tim Perkins FM (H)
Martin Mario Jelani (H)
BlanksbyFM (H)
Alastair Peake FM (L)
Laura Tingle (F)
2
17 pts
Sub 7 I 35:36.8
Ben Jago (H)
Warren Matthews (H)
Casey Clarke (H)
James Howard (L)
Benita Clausen (F)
3
16 pts
Sub 7 II 36:14.1
Kevin Carter (H)
Alan Denby (H)
Rich Dixon (H)
Glyn Lloyd (L)
Jackie Hamer (F)
4
15 pts
Red Line Rowers I 36:37.7
Paul Sands (H)
Rowland Hills (RLR) (H)
Keith Darby (L)
meurice robinson RLR (L)
Tracy Watkins RLR (F)
5
14 pts
Team Oarsome I 36:58.2
Ade Peel TO x1 (H)
Nick Rockliff (H)
Peter Clowes (H)
Craig Mumby (L)
Arlene Wade (TO) (F)
6
13 pts
Fitness Matters II 36:58.4
Josh Skversky FM (H)
Paul Nuttall (H)
tony walpole (H)
Justin Nickel FM (L)
Hanna Neugebauer (F)
7
12 pts
Sub 7 III 37:17.5
Ian Wilde (H)
Matt Eades (H)
Mark Smith Sub7 (H)
Paul Morton (L)
Julie Drake (F)
8
11 pts
Fitness Matters III 37:32.0
Patrik Gustafsson (H)
Paul Lloyd FM (H)
James Clarke (H)
B McAuley (L)
Louise Barber1409 (F)
9
10 pts
The Delivery Room I 37:42.2
Ian Gallagher TDR (H)
Nathaniel Wright TDR (H)
Mark Roberts TDR (H)
Karl Hoods TDR (L)
Burmanator (F)
10
9 pts
Free Spirits I 38:33.3
sjoerd plagmeijer (H)
Matthew Leonard (H)
Jan Borkenstein (H)
Chris Newberry (L)
clareburrell (F)
11
8 pts
Gee Crew I 38:39.5
Andy Parkes (H)
Rouge (H)
Andy Cole (H)
Tony Lorrimer (L)
Eve Evison (F)
12
7 pts
Isenhurst Rowers I 38:50.1
Jonty Eyres (H)
Phil Rayner (H)
Mike Doherty (H)
Nick Carapiet (L)
Sue Ellery (F)
13
6 pts
Team Oarsome II 39:02.7
Dave Chmilowskyj (H)
Gerry Armstrong (H)
Andy Burrows (H)
Gregory Cook (L)
Annette Edwards (F)
14
5 pts
Diamonds I 39:22.2
Rich Enners (H)
Robert Henman (H)
Luther Jones (H)
John.Stiner (L)
Jill Hugessen. (F)
15
4 pts
Forum Flyers I 40:09.0
Nigel Farmer (H)
Allan Hallberg (H)
harrythehamster (H)
Will Haskell (L)
Anna Rae Green (F)
16
3 pts
Diamonds II 40:47.9
Jim McCarthy (H)
Wayne E. Calvert (H)
Neil Little (L)
Giles Stewart (L)
Peta Robinson (F)
17
2 pts
Mercian Nordic Walking I 44:28.3
AMNW Ian Northcott (H)
AMNW DaveW (L)
AMNWEsmeB (L)
AMNW Pauline Demel (F)
AMNWPatT (F)
18
1 pt
Diamonds III 44:53.8
Glenn Horton (H)
MBrownjohn (L)
Richard Webster (L)
Nigel Salsbury (L)
Muckol (F)
19Germania I32:34.1
Tobias Stöhr (H)
 
20Te Waka Aotearoa I32:46.5
NZ - Andy Tomlinson (H)
 
21GARAGEATHLETE I34:22.2
Justin Farina (H)
Craig Hodges (H)
Mark Hudson (H)
 
22MAD I34:39.0
j.d (H)
Russell Carter (H)
Pete Marston (H)
 
23The Delivery Room II35:36.8
..IDR TDW (H)
Mark Tremblay (H)
Richard SA (H)
 
24C2TweetCrew I35:46.0
Kay Bieri (H)
 
25The Delivery Room III36:08.7
Tony Maddocks (H)
Matthew James Fuller (H)
 
26FIRT I37:15.2
Vgueret (H)
Mercier (L)
Bertrand (L)
Sabine Patissier (F)
27Sub 7 VI37:44.4
Mike Pearce (MPx) (H)
Richard Steventon (H)
Hal Appleyard01 (H)
 
28Paddy Power I37:44.8
Guillaume Dauphin (H)
 
29Empty the Tanks I37:45.5
Kevin Hillman (H)
 
30Fitness Matters IV37:52.8
Tako Lootsma (H)
Adam Yalowich (L)
 
31Sub 7 IV38:10.4
Rob Phillips (H)
Jeroen Pasman (H)
John Walsh (H)
Susan Young (F)
32Red Line Rowers II38:37.2
Russell Jones (H)
George Bingham (RLR LWT) (L)
 
33Sub 7 VII38:44.3
Glynn Powell (H)
Robert Jones (H)
Eddie McSharry (H)
 
34Team Oarsome III38:55.2
Matt Newman (L)
 
35Forum Flyers II39:02.1
Richard Wolf (H)
Steve Ockerby (H)
Lindsayh (H)
Terry FF (L)
36MAD II39:04.3
Jon Goodall (H)
 
37Sub 7 V39:14.6
Eric August (H)
Jake Luce (H)
Rob Palk Sub 7 (H)
Bluebell31 (F)
38Age Without Limits I39:38.3
Gaffer (H)
Steve Motzny (H)
David R. Herz (H)
 
39Free Spirits II39:41.8
Paul Gould (H)
Jon P Taylor (L)
David Plumb (L)
Allen H (L)
40Erg365 I41:22.6
M D MItchell (H)
 
41Ski Erg I41:59.5
..SkiScoresMatter (L)
 
42The Chain Pullers I42:11.2
Kevin Livesley (H)
Rich Insley (L)
 
43Forum Flyers III42:12.5
Chris Whale (H)
Bill Palmer (H)
Rick Bayko (L)
 
44Gee Crew II42:12.6
Funkyrower (H)
 
45ESPRIT I44:20.9
Yorkie (H)
 
46Firm Fitness I44:46.2
Scott Royal (H)
Mark Williams (H)
Alex McGee (L)
Susan D FFC (F)
47Isenhurst Rowers II46:26.8
Zoe Osborne (F)
Rachel Riley (F)
 
48RowPro Rowers I46:47.0
Ruud Jackel (H)
 
49Free Spirits III48:29.9
Philip Price (L)
Roger Burrell (L)
 
50Sub 7 VIII49:33.9
Dan Lynch (H)
 
51Diamonds IV50:48.9
Barnsley Bob (H)
Stefan Ledin (L)
Heather Saunders (F)
 
52Mercian Nordic Walking II54:54.0
AMNWAnnMason (L)
AMNWSusanRichards (F)
 

The Cross-Team Challenge is not supported or endorsed by Concept 2.
Site written by Daren Chandisingh. Please post any problems on the UK Concept 2 forum.

Valid XHTML 1.0 Transitional